createdAt,value
2022-12-09T00:00:58.844Z,138.77
2022-12-09T00:02:02.431Z,110.50
2022-12-09T00:03:11.399Z,113.05
2022-12-09T00:04:15.216Z,93.65
2022-12-09T00:05:18.188Z,93.45
2022-12-09T00:06:29.249Z,88.20
2022-12-09T00:07:31.919Z,106.78
2022-12-09T00:08:42.397Z,93.07
2022-12-09T00:09:44.992Z,114.72
2022-12-09T00:10:48.398Z,102.00
2022-12-09T00:11:52.987Z,91.75
2022-12-09T00:13:03.467Z,92.63
2022-12-09T00:14:06.957Z,86.65
2022-12-09T00:15:09.817Z,61.47
2022-12-09T00:16:14.724Z,71.32
2022-12-09T00:17:17.474Z,112.15
2022-12-09T00:18:27.374Z,77.53
2022-12-09T00:19:30.921Z,73.50
2022-12-09T00:20:40.230Z,67.55
2022-12-09T00:21:43.892Z,123.85
2022-12-09T00:22:46.482Z,71.72
2022-12-09T00:23:50.899Z,111.15
2022-12-09T00:25:01.337Z,106.97
2022-12-09T00:26:03.820Z,103.25
2022-12-09T00:27:08.761Z,120.13
2022-12-09T00:28:11.377Z,334.40
2022-12-09T00:29:14.821Z,98.65
2022-12-09T00:30:24.395Z,129.38
2022-12-09T00:31:29.386Z,80.60
2022-12-09T00:32:32.288Z,99.80
2022-12-09T00:33:36.643Z,73.38
2022-12-09T00:34:45.248Z,70.78
2022-12-09T00:35:48.650Z,66.25
2022-12-09T00:36:52.060Z,106.03
2022-12-09T00:37:54.588Z,59.45
2022-12-09T00:38:58.693Z,81.63
2022-12-09T00:40:08.805Z,172.27
2022-12-09T00:41:12.143Z,177.98
2022-12-09T00:42:37.269Z,81.75
2022-12-09T00:43:40.225Z,133.75
2022-12-09T00:44:43.635Z,95.22
2022-12-09T00:45:52.307Z,119.53
2022-12-09T00:47:02.376Z,109.32
2022-12-09T00:48:04.972Z,126.40
2022-12-09T00:49:08.476Z,134.20
2022-12-09T00:50:11.477Z,136.25
2022-12-09T00:51:16.223Z,138.93
2022-12-09T00:52:26.273Z,99.85
2022-12-09T00:53:29.271Z,232.80
2022-12-09T00:54:32.887Z,62.88
2022-12-09T00:55:35.909Z,95.18
2022-12-09T00:56:39.651Z,86.70
2022-12-09T00:57:50.442Z,69.63
2022-12-09T00:58:53.916Z,91.13
2022-12-09T00:59:56.497Z,111.20
2022-12-09T01:01:06.473Z,90.90
2022-12-09T01:02:09.208Z,101.40
2022-12-09T01:03:14.506Z,105.60
2022-12-09T01:04:24.595Z,129.45
2022-12-09T01:05:28.160Z,197.30
2022-12-09T01:06:37.260Z,121.50
2022-12-09T01:07:40.955Z,93.72
2022-12-09T01:08:43.720Z,105.68
2022-12-09T01:09:54.319Z,171.52
2022-12-09T01:10:56.974Z,97.97
2022-12-09T01:12:00.408Z,205.68
2022-12-09T01:13:04.598Z,89.68
2022-12-09T01:14:14.375Z,88.05
2022-12-09T01:15:16.930Z,72.88
2022-12-09T01:16:21.728Z,84.30
2022-12-09T01:17:31.625Z,99.60
2022-12-09T01:18:34.170Z,93.93
2022-12-09T01:19:44.280Z,98.60
2022-12-09T01:20:46.989Z,122.35
2022-12-09T01:21:57.259Z,122.93
2022-12-09T01:23:00.009Z,156.98
2022-12-09T01:24:03.839Z,189.48
2022-12-09T01:25:06.679Z,111.32
2022-12-09T01:26:10.605Z,177.43
2022-12-09T01:27:19.242Z,112.57
2022-12-09T01:28:24.153Z,92.93
2022-12-09T01:29:26.659Z,84.32
2022-12-09T01:30:30.226Z,59.72
2022-12-09T01:31:39.312Z,80.65
2022-12-09T01:32:43.621Z,54.63
2022-12-09T01:33:53.497Z,98.25
2022-12-09T01:34:57.058Z,86.35
2022-12-09T01:35:59.549Z,65.05
2022-12-09T01:37:09.259Z,53.80
2022-12-09T01:38:11.843Z,49.45
2022-12-09T01:39:23.320Z,59.85
2022-12-09T01:40:26.410Z,48.17
2022-12-09T01:41:30.200Z,47.70
2022-12-09T01:42:53.248Z,81.50
2022-12-09T01:44:21.370Z,54.45
2022-12-09T01:45:43.508Z,48.63
2022-12-09T01:46:48.301Z,108.55
2022-12-09T01:47:53.717Z,83.75
2022-12-09T01:49:03.368Z,45.97
2022-12-09T01:50:07.677Z,38.47
2022-12-09T01:51:11.997Z,82.22
2022-12-09T01:52:17.967Z,64.07
2022-12-09T01:53:22.670Z,70.72
2022-12-09T01:54:33.299Z,83.30
2022-12-09T01:55:36.081Z,56.42
2022-12-09T01:56:41.562Z,48.63
2022-12-09T01:57:45.215Z,50.15
2022-12-09T01:58:55.999Z,40.08
2022-12-09T02:00:05.981Z,45.90
2022-12-09T02:01:09.741Z,63.28
2022-12-09T02:02:16.167Z,46.60
2022-12-09T02:03:20.017Z,48.15
2022-12-09T02:04:23.157Z,47.15
2022-12-09T02:05:33.361Z,73.57
2022-12-09T02:06:38.456Z,55.00
2022-12-09T02:07:41.430Z,70.25
2022-12-09T02:08:45.690Z,75.65
2022-12-09T02:09:53.502Z,48.25
2022-12-09T02:11:08.450Z,49.63
2022-12-09T02:12:14.681Z,44.83
2022-12-09T02:13:22.572Z,44.25
2022-12-09T02:14:34.298Z,50.78
2022-12-09T02:15:39.483Z,48.17
2022-12-09T02:16:48.341Z,44.10
2022-12-09T02:17:54.545Z,49.08
2022-12-09T02:19:02.221Z,44.28
2022-12-09T02:20:14.473Z,42.38
2022-12-09T02:21:19.369Z,53.95
2022-12-09T02:22:30.415Z,48.25
2022-12-09T02:23:36.960Z,53.03
2022-12-09T02:24:41.983Z,55.50
2022-12-09T02:25:47.599Z,60.05
2022-12-09T02:26:53.057Z,74.78
2022-12-09T02:28:13.466Z,55.88
2022-12-09T02:29:30.718Z,50.42
2022-12-09T02:30:35.659Z,46.25
2022-12-09T02:31:44.878Z,49.13
2022-12-09T02:32:59.259Z,43.65
2022-12-09T02:34:18.247Z,49.67
2022-12-09T02:35:25.217Z,62.63
2022-12-09T02:36:37.237Z,50.50
2022-12-09T02:37:42.325Z,58.42
2022-12-09T02:38:45.079Z,56.35
2022-12-09T02:39:53.572Z,51.05
2022-12-09T02:41:07.572Z,42.28
2022-12-09T02:42:17.478Z,40.97
2022-12-09T02:43:29.104Z,42.15
2022-12-09T02:44:32.051Z,43.47
2022-12-09T02:45:36.000Z,44.85
2022-12-09T02:46:45.306Z,45.33
2022-12-09T02:47:58.407Z,53.13
2022-12-09T02:49:01.477Z,46.47
2022-12-09T02:50:08.114Z,37.25
2022-12-09T02:51:13.563Z,38.97
2022-12-09T02:52:17.722Z,39.15
2022-12-09T02:53:27.308Z,33.70
2022-12-09T02:54:38.558Z,27.33
2022-12-09T02:55:42.835Z,30.38
2022-12-09T02:56:49.235Z,32.05
2022-12-09T02:57:53.519Z,28.35
2022-12-09T02:59:03.630Z,34.35
2022-12-09T03:00:07.730Z,44.55
2022-12-09T03:01:21.387Z,48.38
2022-12-09T03:02:26.318Z,53.92
2022-12-09T03:03:31.083Z,49.03
2022-12-09T03:04:40.685Z,48.45
2022-12-09T03:05:50.229Z,48.53
2022-12-09T03:06:53.861Z,50.70
2022-12-09T03:08:03.559Z,49.85
2022-12-09T03:09:08.697Z,49.38
2022-12-09T03:10:21.292Z,47.67
2022-12-09T03:11:25.485Z,41.72
2022-12-09T03:12:29.919Z,42.03
2022-12-09T03:13:36.612Z,36.90
2022-12-09T03:14:41.440Z,38.55
2022-12-09T03:15:53.647Z,40.83
2022-12-09T03:16:58.997Z,38.33
2022-12-09T03:18:04.315Z,35.17
2022-12-09T03:19:10.713Z,38.50
2022-12-09T03:20:21.271Z,29.20
2022-12-09T03:21:28.324Z,33.53
2022-12-09T03:22:32.454Z,28.50
2022-12-09T03:23:36.991Z,25.95
2022-12-09T03:24:40.696Z,27.35
2022-12-09T03:25:53.285Z,26.38
2022-12-09T03:26:55.986Z,31.83
2022-12-09T03:28:02.557Z,28.02
2022-12-09T03:29:07.035Z,27.23
2022-12-09T03:30:17.495Z,26.52
2022-12-09T03:31:29.392Z,26.42
2022-12-09T03:32:33.966Z,23.98
2022-12-09T03:33:36.687Z,25.58
2022-12-09T03:34:41.806Z,24.92
2022-12-09T03:35:52.414Z,25.05
2022-12-09T03:36:59.509Z,21.83
2022-12-09T03:38:03.845Z,22.92
2022-12-09T03:39:09.178Z,21.52
2022-12-09T03:40:15.402Z,23.88
2022-12-09T03:41:28.601Z,23.45
2022-12-09T03:42:41.477Z,18.13
2022-12-09T03:44:01.277Z,23.65
2022-12-09T03:45:04.928Z,25.88
2022-12-09T03:46:15.312Z,27.90
2022-12-09T03:47:18.885Z,21.55
2022-12-09T03:48:21.789Z,23.15
2022-12-09T03:49:25.415Z,26.67
2022-12-09T03:50:30.160Z,25.58
2022-12-09T03:51:44.458Z,26.67
2022-12-09T03:52:50.108Z,24.50
2022-12-09T03:53:57.142Z,27.20
2022-12-09T03:55:01.081Z,19.50
2022-12-09T03:56:15.447Z,25.88
2022-12-09T03:57:25.273Z,23.50
2022-12-09T03:58:36.462Z,29.20
2022-12-09T03:59:39.004Z,25.85
2022-12-09T04:00:42.925Z,26.52
2022-12-09T04:01:52.887Z,25.75
2022-12-09T04:02:56.717Z,26.85
2022-12-09T04:03:59.616Z,24.98
2022-12-09T04:05:03.280Z,27.98
2022-12-09T04:06:05.868Z,29.65
2022-12-09T04:07:18.258Z,26.48
2022-12-09T04:08:22.167Z,25.67
2022-12-09T04:09:25.979Z,39.05
2022-12-09T04:10:28.556Z,37.00
2022-12-09T04:11:32.769Z,37.00
2022-12-09T04:12:42.393Z,37.67
2022-12-09T04:13:52.751Z,31.65
2022-12-09T04:14:55.403Z,36.90
2022-12-09T04:15:58.859Z,35.22
2022-12-09T04:17:01.776Z,42.38
2022-12-09T04:18:05.716Z,32.67
2022-12-09T04:19:15.600Z,36.55
2022-12-09T04:20:19.478Z,45.17
2022-12-09T04:21:22.136Z,40.17
2022-12-09T04:22:32.260Z,46.45
2022-12-09T04:23:41.007Z,44.65
2022-12-09T04:24:53.598Z,34.40
2022-12-09T04:26:02.659Z,42.97
2022-12-09T04:27:06.402Z,46.33
2022-12-09T04:28:09.011Z,45.03
2022-12-09T04:29:19.382Z,40.67
2022-12-09T04:30:28.279Z,42.60
2022-12-09T04:31:31.796Z,37.10
2022-12-09T04:32:34.481Z,42.13
2022-12-09T04:33:38.096Z,42.38
2022-12-09T04:34:47.275Z,45.10
2022-12-09T04:35:50.961Z,41.83
2022-12-09T04:36:53.562Z,42.00
2022-12-09T04:37:57.253Z,42.28
2022-12-09T04:39:08.383Z,41.58
2022-12-09T04:40:16.750Z,40.67
2022-12-09T04:41:22.869Z,46.10
2022-12-09T04:42:46.230Z,36.70
2022-12-09T04:43:56.238Z,43.28
2022-12-09T04:44:58.697Z,49.63
2022-12-09T04:46:03.005Z,55.78
2022-12-09T04:47:12.703Z,51.05
2022-12-09T04:48:16.177Z,51.70
2022-12-09T04:49:25.582Z,52.47
2022-12-09T04:50:29.064Z,46.75
2022-12-09T04:51:40.133Z,45.92
2022-12-09T04:52:44.586Z,55.10
2022-12-09T04:53:47.215Z,47.08
2022-12-09T04:54:59.260Z,47.25
2022-12-09T04:56:08.527Z,42.22
2022-12-09T04:57:13.157Z,51.05
2022-12-09T04:58:15.696Z,55.65
2022-12-09T04:59:19.098Z,45.90
2022-12-09T05:00:28.561Z,42.72
2022-12-09T05:01:38.538Z,44.83
2022-12-09T05:02:41.579Z,47.25
2022-12-09T05:03:45.689Z,42.53
2022-12-09T05:04:48.455Z,37.15
2022-12-09T05:05:52.223Z,38.10
2022-12-09T05:07:01.628Z,41.25
2022-12-09T05:08:05.673Z,34.50
2022-12-09T05:09:12.245Z,43.13
2022-12-09T05:10:17.341Z,40.83
2022-12-09T05:11:21.053Z,41.05
2022-12-09T05:12:31.315Z,46.70
2022-12-09T05:13:33.855Z,41.05
2022-12-09T05:14:44.380Z,41.00
2022-12-09T05:15:47.056Z,41.17
2022-12-09T05:16:50.931Z,45.90
2022-12-09T05:17:54.855Z,47.17
2022-12-09T05:19:07.795Z,36.92
2022-12-09T05:20:11.760Z,36.45
2022-12-09T05:21:15.915Z,45.85
2022-12-09T05:22:26.617Z,40.50
2022-12-09T05:23:29.295Z,48.10
2022-12-09T05:24:33.411Z,67.20
2022-12-09T05:25:37.874Z,47.53
2022-12-09T05:26:41.732Z,53.45
2022-12-09T05:27:50.347Z,58.45
2022-12-09T05:28:53.856Z,70.05
2022-12-09T05:29:56.508Z,67.05
2022-12-09T05:31:01.596Z,62.30
2022-12-09T05:32:04.445Z,56.28
2022-12-09T05:33:14.615Z,77.80
2022-12-09T05:34:23.543Z,63.78
2022-12-09T05:35:50.511Z,60.88
2022-12-09T05:36:55.674Z,64.20
2022-12-09T05:37:58.936Z,60.92
2022-12-09T05:39:09.436Z,56.10
2022-12-09T05:40:18.459Z,49.83
2022-12-09T05:41:24.261Z,51.92
2022-12-09T05:42:48.540Z,57.72
2022-12-09T05:43:51.324Z,50.38
2022-12-09T05:45:01.307Z,63.30
2022-12-09T05:46:04.456Z,72.93
2022-12-09T05:47:08.662Z,69.63
2022-12-09T05:48:11.303Z,56.85
2022-12-09T05:49:15.388Z,58.42
2022-12-09T05:50:24.802Z,51.30
2022-12-09T05:51:29.366Z,53.00
2022-12-09T05:52:31.918Z,67.57
2022-12-09T05:53:36.704Z,59.90
2022-12-09T05:54:39.410Z,53.72
2022-12-09T05:55:49.763Z,50.22
2022-12-09T05:56:57.405Z,78.80
2022-12-09T05:58:00.369Z,64.20
2022-12-09T05:59:03.851Z,63.90
2022-12-09T06:00:08.450Z,55.08
2022-12-09T06:01:19.948Z,58.88
2022-12-09T06:02:22.837Z,57.58
2022-12-09T06:03:27.221Z,58.22
2022-12-09T06:04:30.064Z,58.72
2022-12-09T06:05:34.559Z,54.67
2022-12-09T06:06:43.530Z,59.47
2022-12-09T06:07:47.674Z,59.35
2022-12-09T06:08:50.826Z,57.20
2022-12-09T06:09:54.794Z,59.28
2022-12-09T06:10:58.432Z,68.40
2022-12-09T06:12:09.597Z,61.80
2022-12-09T06:13:13.432Z,79.90
2022-12-09T06:14:16.181Z,66.50
2022-12-09T06:15:22.024Z,67.70
2022-12-09T06:16:26.363Z,62.15
2022-12-09T06:17:36.587Z,62.13
2022-12-09T06:18:39.617Z,60.20
2022-12-09T06:19:50.596Z,57.58
2022-12-09T06:20:53.520Z,60.47
2022-12-09T06:21:57.251Z,60.85
2022-12-09T06:23:06.627Z,58.80
2022-12-09T06:24:17.312Z,57.85
2022-12-09T06:25:19.946Z,63.97
2022-12-09T06:26:24.662Z,63.78
2022-12-09T06:27:29.819Z,70.85
2022-12-09T06:28:33.298Z,70.68
2022-12-09T06:29:43.554Z,72.72
2022-12-09T06:30:47.277Z,58.13
2022-12-09T06:31:50.170Z,68.38
2022-12-09T06:32:54.173Z,81.85
2022-12-09T06:33:58.580Z,90.88
2022-12-09T06:35:09.962Z,78.03
2022-12-09T06:36:12.737Z,78.00
2022-12-09T06:37:17.128Z,85.72
2022-12-09T06:38:19.759Z,85.18
2022-12-09T06:39:23.447Z,89.63
2022-12-09T06:40:32.353Z,79.15
2022-12-09T06:41:36.012Z,87.97
2022-12-09T06:42:46.921Z,80.53
2022-12-09T06:44:06.325Z,81.45
2022-12-09T06:45:17.547Z,89.35
2022-12-09T06:46:23.710Z,70.20
2022-12-09T06:47:28.174Z,84.57
2022-12-09T06:48:30.989Z,69.22
2022-12-09T06:49:34.652Z,71.32
2022-12-09T06:50:44.672Z,65.53
2022-12-09T06:51:48.534Z,92.90
2022-12-09T06:52:52.009Z,72.55
2022-12-09T06:53:55.331Z,83.05
2022-12-09T06:54:59.308Z,93.97
2022-12-09T06:56:12.581Z,94.47
2022-12-09T06:57:16.718Z,77.30
2022-12-09T06:58:21.577Z,83.85
2022-12-09T06:59:25.651Z,85.35
2022-12-09T07:00:29.161Z,90.28
2022-12-09T07:01:39.798Z,83.88
2022-12-09T07:02:42.736Z,80.03
2022-12-09T07:03:47.977Z,84.32
2022-12-09T07:04:57.138Z,80.38
2022-12-09T07:06:00.601Z,69.75
2022-12-09T07:07:10.456Z,71.80
2022-12-09T07:08:13.381Z,70.93
2022-12-09T07:09:19.862Z,60.33
2022-12-09T07:10:23.844Z,77.53
2022-12-09T07:11:28.082Z,61.15
2022-12-09T07:12:38.367Z,65.07
2022-12-09T07:13:42.350Z,62.00
2022-12-09T07:14:46.263Z,52.50
2022-12-09T07:15:49.329Z,53.72
2022-12-09T07:16:53.116Z,60.80
2022-12-09T07:18:03.664Z,60.25
2022-12-09T07:19:07.056Z,52.72
2022-12-09T07:20:11.320Z,55.63
2022-12-09T07:21:14.598Z,55.97
2022-12-09T07:22:18.511Z,58.00
2022-12-09T07:23:27.319Z,73.88
2022-12-09T07:24:30.931Z,82.18
2022-12-09T07:25:34.923Z,65.35
2022-12-09T07:26:37.686Z,70.55
2022-12-09T07:27:48.460Z,68.88
2022-12-09T07:28:53.700Z,68.40
2022-12-09T07:29:58.416Z,61.70
2022-12-09T07:31:01.410Z,56.30
2022-12-09T07:32:05.499Z,62.38
2022-12-09T07:33:14.629Z,61.28
2022-12-09T07:34:18.614Z,60.83
2022-12-09T07:35:21.678Z,91.97
2022-12-09T07:36:26.013Z,58.95
2022-12-09T07:37:36.322Z,58.50
2022-12-09T07:38:39.275Z,56.60
2022-12-09T07:39:49.664Z,54.53
2022-12-09T07:40:59.691Z,64.00
2022-12-09T07:42:03.244Z,70.03
2022-12-09T07:43:14.444Z,62.50
2022-12-09T07:44:18.718Z,86.05
2022-12-09T07:45:29.548Z,62.83
2022-12-09T07:46:33.355Z,65.38
2022-12-09T07:47:36.167Z,58.00
2022-12-09T07:48:40.196Z,61.55
2022-12-09T07:49:44.754Z,72.97
2022-12-09T07:50:54.542Z,74.15
2022-12-09T07:51:58.145Z,75.43
2022-12-09T07:53:01.948Z,58.97
2022-12-09T07:54:06.087Z,79.70
2022-12-09T07:55:09.559Z,78.03
2022-12-09T07:56:21.666Z,75.38
2022-12-09T07:57:25.558Z,77.07
2022-12-09T07:58:28.676Z,81.78
2022-12-09T07:59:33.657Z,94.07
2022-12-09T08:00:43.486Z,72.90
2022-12-09T08:01:47.324Z,79.78
2022-12-09T08:02:51.198Z,73.28
2022-12-09T08:03:54.704Z,81.45
2022-12-09T08:04:58.646Z,98.57
2022-12-09T08:06:08.531Z,86.63
2022-12-09T08:07:13.729Z,77.40
2022-12-09T08:08:18.051Z,99.72
2022-12-09T08:09:22.011Z,110.20
2022-12-09T08:10:24.818Z,118.13
2022-12-09T08:11:36.694Z,119.30
2022-12-09T08:12:40.248Z,108.22
2022-12-09T08:13:43.812Z,127.30
2022-12-09T08:14:48.810Z,88.53
2022-12-09T08:15:51.719Z,94.75
2022-12-09T08:17:01.421Z,86.05
2022-12-09T08:18:06.266Z,88.40
2022-12-09T08:19:10.299Z,92.63
2022-12-09T08:20:15.371Z,89.05
2022-12-09T08:21:19.586Z,92.72
2022-12-09T08:22:30.649Z,89.25
2022-12-09T08:23:40.510Z,106.15
2022-12-09T08:24:44.828Z,92.88
2022-12-09T08:25:47.509Z,92.82
2022-12-09T08:26:52.114Z,89.88
2022-12-09T08:27:54.969Z,93.90
2022-12-09T08:29:05.453Z,103.95
2022-12-09T08:30:11.481Z,116.70
2022-12-09T08:31:16.855Z,82.85
2022-12-09T08:32:21.025Z,90.22
2022-12-09T08:33:23.778Z,85.85
2022-12-09T08:34:34.839Z,77.43
2022-12-09T08:35:38.135Z,85.07
2022-12-09T08:36:42.405Z,73.25
2022-12-09T08:37:46.571Z,80.75
2022-12-09T08:38:56.344Z,62.00
2022-12-09T08:40:00.129Z,80.30
2022-12-09T08:41:09.234Z,86.43
2022-12-09T08:42:12.878Z,79.53
2022-12-09T08:43:36.273Z,75.18
2022-12-09T08:44:47.734Z,68.68
2022-12-09T08:45:53.198Z,66.18
2022-12-09T08:46:57.050Z,65.57
2022-12-09T08:47:59.789Z,72.60
2022-12-09T08:49:03.903Z,72.40
2022-12-09T08:50:16.275Z,64.78
2022-12-09T08:51:20.333Z,60.83
2022-12-09T08:52:24.039Z,68.18
2022-12-09T08:53:27.057Z,64.57
2022-12-09T08:54:30.810Z,60.05
2022-12-09T08:55:41.466Z,62.20
2022-12-09T08:56:46.831Z,59.50
2022-12-09T08:57:49.519Z,63.65
2022-12-09T08:58:53.242Z,68.50
2022-12-09T09:00:03.959Z,64.90
2022-12-09T09:01:09.072Z,64.35
2022-12-09T09:02:12.839Z,62.05
2022-12-09T09:03:15.649Z,57.58
2022-12-09T09:04:26.587Z,54.40
2022-12-09T09:05:31.076Z,51.97
2022-12-09T09:06:35.099Z,45.10
2022-12-09T09:07:40.550Z,46.00
2022-12-09T09:08:45.058Z,54.67
2022-12-09T09:09:55.716Z,52.92
2022-12-09T09:10:59.923Z,53.00
2022-12-09T09:12:10.295Z,56.10
2022-12-09T09:13:12.879Z,53.85
2022-12-09T09:14:16.856Z,55.80
2022-12-09T09:15:19.436Z,57.42
2022-12-09T09:16:25.579Z,59.47
2022-12-09T09:17:35.789Z,62.45
2022-12-09T09:18:39.513Z,59.60
2022-12-09T09:19:43.539Z,57.45
2022-12-09T09:20:55.610Z,57.95
2022-12-09T09:21:59.277Z,50.17
2022-12-09T09:23:09.442Z,50.78
2022-12-09T09:24:13.544Z,49.60
2022-12-09T09:25:17.158Z,57.97
2022-12-09T09:26:22.845Z,66.07
2022-12-09T09:27:32.327Z,63.70
2022-12-09T09:28:36.147Z,62.70
2022-12-09T09:29:39.741Z,57.15
2022-12-09T09:30:43.504Z,63.33
2022-12-09T09:31:50.447Z,59.58
2022-12-09T09:33:00.961Z,55.55
2022-12-09T09:34:04.035Z,61.88
2022-12-09T09:35:07.967Z,60.33
2022-12-09T09:36:14.124Z,58.47
2022-12-09T09:37:17.762Z,60.13
2022-12-09T09:38:27.662Z,51.00
2022-12-09T09:39:31.454Z,51.63
2022-12-09T09:40:35.512Z,57.72
2022-12-09T09:41:45.337Z,58.28
2022-12-09T09:43:09.655Z,53.47
2022-12-09T09:44:24.760Z,58.17
2022-12-09T09:45:28.755Z,56.22
2022-12-09T09:46:36.040Z,60.65
2022-12-09T09:47:43.332Z,58.72
2022-12-09T09:48:53.826Z,58.50
2022-12-09T09:50:07.382Z,56.47
2022-12-09T09:51:15.807Z,49.00
2022-12-09T09:52:20.484Z,54.70
2022-12-09T09:53:26.016Z,53.90
2022-12-09T09:54:36.422Z,56.05
2022-12-09T09:55:50.449Z,53.53
2022-12-09T09:56:56.687Z,52.50
2022-12-09T09:58:04.058Z,60.47
2022-12-09T09:59:15.195Z,60.05
2022-12-09T10:00:29.934Z,68.85
2022-12-09T10:01:36.011Z,66.22
2022-12-09T10:02:50.304Z,78.00
2022-12-09T10:03:57.766Z,65.38
2022-12-09T10:05:07.145Z,61.45
2022-12-09T10:06:20.619Z,63.67
2022-12-09T10:07:28.162Z,66.22
2022-12-09T10:08:36.736Z,60.65
2022-12-09T10:09:43.556Z,62.88
2022-12-09T10:11:00.787Z,58.90
2022-12-09T10:12:13.305Z,57.78
2022-12-09T10:13:23.021Z,65.20
2022-12-09T10:14:33.330Z,59.38
2022-12-09T10:15:40.783Z,56.25
2022-12-09T10:16:51.607Z,61.90
2022-12-09T10:18:00.488Z,58.45
2022-12-09T10:19:09.380Z,57.05
2022-12-09T10:20:15.832Z,61.17
2022-12-09T10:21:20.899Z,63.03
2022-12-09T10:22:35.507Z,53.92
2022-12-09T10:23:46.936Z,67.28
2022-12-09T10:24:51.771Z,94.60
2022-12-09T10:25:57.566Z,70.88
2022-12-09T10:27:03.747Z,82.47
2022-12-09T10:28:15.528Z,82.38
2022-12-09T10:29:22.025Z,83.30
2022-12-09T10:30:28.918Z,59.20
2022-12-09T10:31:37.453Z,55.95
2022-12-09T10:32:48.462Z,60.67
2022-12-09T10:33:53.668Z,61.58
2022-12-09T10:34:57.174Z,60.63
2022-12-09T10:36:07.718Z,55.10
2022-12-09T10:37:21.076Z,57.33
2022-12-09T10:38:25.502Z,65.90
2022-12-09T10:39:28.077Z,60.28
2022-12-09T10:40:41.574Z,64.75
2022-12-09T10:42:04.842Z,56.97
2022-12-09T10:43:44.717Z,59.08
2022-12-09T10:44:49.153Z,58.33
2022-12-09T10:46:17.182Z,62.75
2022-12-09T10:47:24.795Z,61.38
2022-12-09T10:48:32.976Z,64.53
2022-12-09T10:49:46.115Z,54.33
2022-12-09T10:51:04.101Z,54.15
2022-12-09T10:52:07.877Z,55.67
2022-12-09T10:53:13.635Z,59.45
2022-12-09T10:54:22.205Z,61.25
2022-12-09T10:55:27.873Z,58.83
2022-12-09T10:56:38.676Z,53.47
2022-12-09T10:57:42.662Z,67.03
2022-12-09T10:58:51.644Z,67.95
2022-12-09T11:00:00.102Z,69.03
2022-12-09T11:01:08.849Z,69.40
2022-12-09T11:02:20.381Z,74.72
2022-12-09T11:03:27.018Z,80.35
2022-12-09T11:04:38.568Z,75.40
2022-12-09T11:05:49.579Z,67.88
2022-12-09T11:06:59.111Z,74.30
2022-12-09T11:08:04.216Z,73.60
2022-12-09T11:09:07.335Z,59.85
2022-12-09T11:10:25.463Z,61.15
2022-12-09T11:11:42.930Z,64.72
2022-12-09T11:12:45.817Z,64.13
2022-12-09T11:13:49.508Z,56.08
2022-12-09T11:14:53.378Z,59.42
2022-12-09T11:16:08.019Z,64.30
2022-12-09T11:17:16.941Z,62.47
2022-12-09T11:18:22.170Z,63.40
2022-12-09T11:19:33.477Z,64.38
2022-12-09T11:20:44.723Z,59.40
2022-12-09T11:21:50.117Z,60.20
2022-12-09T11:23:00.864Z,64.55
2022-12-09T11:24:05.060Z,59.97
2022-12-09T11:25:28.100Z,56.28
2022-12-09T11:26:43.424Z,59.92
2022-12-09T11:27:50.878Z,59.25
2022-12-09T11:29:04.557Z,66.10
2022-12-09T11:30:13.068Z,65.30
2022-12-09T11:31:30.314Z,60.33
2022-12-09T11:32:38.398Z,59.10
2022-12-09T11:33:51.076Z,61.78
2022-12-09T11:34:54.350Z,55.47
2022-12-09T11:35:59.903Z,58.70
2022-12-09T11:37:04.872Z,53.05
2022-12-09T11:38:17.230Z,49.97
2022-12-09T11:39:30.278Z,50.15
2022-12-09T11:40:34.860Z,47.88
2022-12-09T11:42:02.314Z,51.65
2022-12-09T11:43:26.312Z,51.42
2022-12-09T11:44:32.091Z,47.60
2022-12-09T11:45:36.669Z,49.95
2022-12-09T11:46:39.406Z,50.72
2022-12-09T11:48:23.047Z,46.20
2022-12-09T11:49:16.300Z,56.97
2022-12-09T11:50:21.530Z,69.95
2022-12-09T11:51:27.999Z,74.50
2022-12-09T11:52:33.434Z,67.10
2022-12-09T11:53:48.413Z,75.80
2022-12-09T11:55:05.508Z,81.90
2022-12-09T11:56:14.963Z,83.72
2022-12-09T11:57:23.589Z,81.35
2022-12-09T11:58:42.691Z,82.50
2022-12-09T11:59:49.525Z,86.25
2022-12-09T12:00:55.002Z,79.50
2022-12-09T12:02:05.951Z,79.32
2022-12-09T12:03:14.829Z,77.55
2022-12-09T12:04:26.306Z,78.68
2022-12-09T12:05:34.157Z,79.13
2022-12-09T12:06:43.689Z,75.95
2022-12-09T12:07:50.647Z,66.78
2022-12-09T12:08:56.640Z,71.63
2022-12-09T12:10:06.661Z,64.30
2022-12-09T12:11:15.623Z,71.60
2022-12-09T12:12:20.533Z,70.38
2022-12-09T12:13:25.587Z,72.28
2022-12-09T12:14:37.351Z,66.70
2022-12-09T12:15:45.241Z,64.68
2022-12-09T12:16:52.612Z,69.75
2022-12-09T12:17:57.266Z,61.70
2022-12-09T12:19:03.543Z,61.30
2022-12-09T12:20:14.302Z,66.75
2022-12-09T12:21:22.537Z,60.85
2022-12-09T12:22:40.348Z,60.58
2022-12-09T12:23:50.277Z,61.97
2022-12-09T12:25:19.613Z,67.90
2022-12-09T12:26:25.029Z,69.20
2022-12-09T12:27:32.899Z,71.93
2022-12-09T12:28:57.347Z,68.57
2022-12-09T12:30:05.282Z,74.57
2022-12-09T12:31:18.376Z,61.55
2022-12-09T12:32:28.187Z,58.55
2022-12-09T12:34:07.829Z,47.70
2022-12-09T12:35:25.317Z,56.35
2022-12-09T12:36:33.564Z,55.80
2022-12-09T12:37:40.713Z,52.08
2022-12-09T12:39:21.408Z,43.70
2022-12-09T12:40:38.769Z,46.92
2022-12-09T12:41:47.410Z,41.05
2022-12-09T12:43:15.707Z,37.72
2022-12-09T12:45:03.339Z,35.85
2022-12-09T12:46:21.923Z,38.45
2022-12-09T12:47:27.116Z,34.15
2022-12-09T12:48:34.088Z,37.33
2022-12-09T12:49:55.308Z,32.88
2022-12-09T12:51:04.181Z,36.45
2022-12-09T12:52:47.023Z,39.85
2022-12-09T12:53:46.405Z,35.45
2022-12-09T12:54:56.868Z,35.70
2022-12-09T12:56:01.363Z,35.47
2022-12-09T12:57:10.354Z,37.72
2022-12-09T12:58:16.071Z,35.83
2022-12-09T12:59:31.287Z,40.00
2022-12-09T13:00:39.108Z,35.33
2022-12-09T13:01:55.325Z,37.13
2022-12-09T13:03:09.218Z,34.97
2022-12-09T13:04:24.471Z,30.70
2022-12-09T13:05:29.547Z,33.55
2022-12-09T13:06:44.307Z,34.28
2022-12-09T13:07:50.331Z,27.52
2022-12-09T13:09:03.387Z,24.58
2022-12-09T13:10:21.358Z,29.65
2022-12-09T13:11:28.011Z,24.08
2022-12-09T13:12:52.107Z,29.05
2022-12-09T13:13:56.874Z,28.38
2022-12-09T13:15:00.787Z,23.75
2022-12-09T13:16:13.359Z,22.60
2022-12-09T13:17:16.852Z,22.70
2022-12-09T13:18:23.041Z,19.13
2022-12-09T13:19:29.688Z,21.55
2022-12-09T13:20:48.269Z,22.00
2022-12-09T13:21:52.245Z,23.75
2022-12-09T13:22:57.657Z,19.40
2022-12-09T13:24:04.984Z,19.92
2022-12-09T13:25:16.884Z,16.55
2022-12-09T13:26:35.314Z,17.58
2022-12-09T13:27:40.906Z,22.23
2022-12-09T13:28:47.293Z,19.25
2022-12-09T13:29:53.989Z,26.35
2022-12-09T13:31:05.375Z,21.55
2022-12-09T13:32:15.318Z,23.33
2022-12-09T13:33:29.849Z,22.60
2022-12-09T13:34:38.168Z,21.77
2022-12-09T13:35:43.897Z,21.55
2022-12-09T13:36:55.298Z,25.92
2022-12-09T13:38:06.291Z,19.27
2022-12-09T13:39:12.172Z,17.33
2022-12-09T13:40:30.783Z,22.38
2022-12-09T13:41:52.438Z,20.70
2022-12-09T13:43:05.313Z,22.15
2022-12-09T13:44:29.291Z,19.23
2022-12-09T13:45:36.938Z,19.77
2022-12-09T13:46:43.026Z,19.90
2022-12-09T13:47:47.463Z,18.08
2022-12-09T13:48:58.322Z,21.85
2022-12-09T13:50:02.280Z,24.45
2022-12-09T13:51:05.810Z,19.92
2022-12-09T13:52:09.317Z,17.88
2022-12-09T13:53:32.329Z,18.10
2022-12-09T13:54:38.006Z,20.88
2022-12-09T13:55:49.008Z,20.92
2022-12-09T13:57:06.090Z,25.02
2022-12-09T13:58:33.299Z,21.90
2022-12-09T13:59:40.141Z,21.05
2022-12-09T14:00:44.944Z,18.63
2022-12-09T14:01:51.463Z,20.55
2022-12-09T14:02:56.532Z,20.88
2022-12-09T14:04:10.567Z,22.00
2022-12-09T14:05:15.328Z,20.85
2022-12-09T14:06:20.818Z,22.20
2022-12-09T14:07:28.433Z,22.55
2022-12-09T14:08:35.832Z,23.60
2022-12-09T14:09:47.333Z,27.30
2022-12-09T14:10:53.167Z,26.38
2022-12-09T14:11:57.201Z,30.63
2022-12-09T14:13:05.241Z,29.15
2022-12-09T14:14:39.380Z,30.52
2022-12-09T14:15:42.934Z,32.97
2022-12-09T14:16:45.503Z,32.20
2022-12-09T14:18:06.650Z,30.13
2022-12-09T14:19:29.459Z,31.35
2022-12-09T14:20:41.321Z,33.92
2022-12-09T14:21:44.856Z,30.38
2022-12-09T14:23:02.176Z,34.05
2022-12-09T14:24:24.118Z,81.10
2022-12-09T14:25:51.597Z,78.18
2022-12-09T14:29:05.872Z,50.90
2022-12-09T14:30:50.007Z,31.08
2022-12-09T14:32:00.257Z,28.60
2022-12-09T14:33:04.296Z,29.75
2022-12-09T14:34:17.431Z,31.02
2022-12-09T14:35:27.002Z,31.10